createdAt,value
2023-03-21T00:00:40.549Z,8.00
2023-03-21T00:03:07.464Z,7.53
2023-03-21T00:05:34.337Z,7.70
2023-03-21T00:08:02.653Z,8.57
2023-03-21T00:10:39.806Z,8.00
2023-03-21T00:13:07.605Z,7.55
2023-03-21T00:15:44.263Z,7.65
2023-03-21T00:18:23.005Z,7.25
2023-03-21T00:21:25.702Z,8.20
2023-03-21T00:23:46.785Z,7.47
2023-03-21T00:26:14.740Z,7.80
2023-03-21T00:28:42.968Z,7.70
2023-03-21T00:31:10.198Z,8.05
2023-03-21T00:33:39.098Z,7.55
2023-03-21T00:36:07.397Z,8.38
2023-03-21T00:38:36.877Z,7.55
2023-03-21T00:41:21.012Z,8.05
2023-03-21T00:43:51.881Z,8.70
2023-03-21T00:46:18.756Z,8.10
2023-03-21T00:48:46.120Z,8.52
2023-03-21T00:51:18.573Z,8.38
2023-03-21T00:53:45.358Z,7.93
2023-03-21T00:56:11.957Z,8.35
2023-03-21T00:58:38.589Z,7.68
2023-03-21T01:01:06.581Z,8.48
2023-03-21T01:03:42.515Z,8.05
2023-03-21T01:06:13.267Z,7.53
2023-03-21T01:08:51.784Z,7.63
2023-03-21T01:11:22.528Z,7.93
2023-03-21T01:14:07.327Z,7.93
2023-03-21T01:16:36.894Z,7.32
2023-03-21T01:19:09.343Z,7.88
2023-03-21T01:21:39.301Z,7.03
2023-03-21T01:24:06.868Z,8.25
2023-03-21T01:26:33.722Z,7.72
2023-03-21T01:29:00.501Z,7.63
2023-03-21T01:31:27.208Z,7.32
2023-03-21T01:33:53.900Z,8.10
2023-03-21T01:36:24.343Z,7.03
2023-03-21T01:38:52.377Z,7.50
2023-03-21T01:41:33.465Z,7.25
2023-03-21T01:44:07.430Z,7.32
2023-03-21T01:49:34.550Z,9.38
2023-03-21T01:52:12.168Z,8.23
2023-03-21T01:54:42.204Z,8.50
2023-03-21T01:57:15.406Z,7.53
2023-03-21T01:59:50.314Z,7.90
2023-03-21T02:02:23.168Z,7.95
2023-03-21T02:04:56.109Z,8.20
2023-03-21T02:07:29.368Z,8.25
2023-03-21T02:09:57.968Z,8.70
2023-03-21T02:12:26.564Z,8.82
2023-03-21T02:14:54.232Z,9.20
2023-03-21T02:17:41.948Z,9.02
2023-03-21T02:20:52.298Z,8.10
2023-03-21T02:23:39.706Z,7.93
2023-03-21T02:26:42.326Z,8.45
2023-03-21T02:29:30.808Z,8.55
2023-03-21T02:32:37.716Z,9.13
2023-03-21T02:35:37.083Z,7.35
2023-03-21T02:38:30.598Z,8.00
2023-03-21T02:41:40.184Z,7.85
2023-03-21T02:44:27.524Z,7.72
2023-03-21T02:47:10.966Z,8.25
2023-03-21T02:50:02.656Z,7.75
2023-03-21T02:52:39.240Z,7.72
2023-03-21T02:55:13.819Z,7.22
2023-03-21T02:57:44.007Z,7.68
2023-03-21T03:00:17.864Z,8.20
2023-03-21T03:02:45.189Z,8.30
2023-03-21T03:05:21.531Z,7.35
2023-03-21T03:08:09.140Z,7.60
2023-03-21T03:10:58.628Z,7.32
2023-03-21T03:13:27.989Z,7.10
2023-03-21T03:16:16.272Z,7.65
2023-03-21T03:18:57.976Z,7.55
2023-03-21T03:21:37.606Z,7.60
2023-03-21T03:24:12.975Z,7.32
2023-03-21T03:26:41.434Z,7.70
2023-03-21T03:29:13.234Z,7.13
2023-03-21T03:31:47.362Z,6.90
2023-03-21T03:34:20.570Z,7.60
2023-03-21T03:36:56.254Z,7.38
2023-03-21T03:39:31.038Z,7.57
2023-03-21T03:42:18.333Z,7.70
2023-03-21T03:44:52.612Z,7.30
2023-03-21T03:47:47.744Z,7.80
2023-03-21T03:50:39.744Z,7.07
2023-03-21T03:53:22.831Z,7.95
2023-03-21T03:55:51.731Z,8.88
2023-03-21T03:58:23.778Z,7.70
2023-03-21T04:00:53.392Z,8.48
2023-03-21T04:03:20.701Z,7.82
2023-03-21T04:05:47.450Z,8.00
2023-03-21T04:08:15.416Z,8.32
2023-03-21T04:10:42.982Z,8.23
2023-03-21T04:13:10.129Z,7.75
2023-03-21T04:15:37.251Z,8.40
2023-03-21T04:18:04.039Z,8.10
2023-03-21T04:20:37.060Z,8.50
2023-03-21T04:23:05.413Z,8.32
2023-03-21T04:25:38.659Z,8.55
2023-03-21T04:28:07.241Z,8.57
2023-03-21T04:30:34.194Z,8.02
2023-03-21T04:33:01.135Z,8.23
2023-03-21T04:35:28.514Z,7.88
2023-03-21T04:37:56.005Z,8.70
2023-03-21T04:40:24.645Z,7.88
2023-03-21T04:42:52.758Z,7.95
2023-03-21T04:45:19.501Z,8.13
2023-03-21T04:47:46.272Z,7.45
2023-03-21T04:50:13.701Z,6.85
2023-03-21T04:52:40.569Z,7.88
2023-03-21T04:55:10.062Z,7.72
2023-03-21T04:57:38.289Z,8.00
2023-03-21T05:00:25.740Z,8.38
2023-03-21T05:02:52.351Z,8.77
2023-03-21T05:05:19.041Z,9.02
2023-03-21T05:07:45.713Z,8.88
2023-03-21T05:10:12.532Z,8.05
2023-03-21T05:12:39.731Z,8.57
2023-03-21T05:15:07.333Z,8.85
2023-03-21T05:17:34.380Z,9.05
2023-03-21T05:20:01.085Z,9.13
2023-03-21T05:22:28.961Z,7.70
2023-03-21T05:24:56.049Z,9.80
2023-03-21T05:27:35.691Z,9.68
2023-03-21T05:30:20.703Z,8.32
2023-03-21T05:32:47.448Z,9.23
2023-03-21T05:35:14.154Z,8.70
2023-03-21T05:37:40.777Z,8.52
2023-03-21T05:40:08.662Z,9.00
2023-03-21T05:42:35.405Z,8.48
2023-03-21T05:45:02.065Z,9.88
2023-03-21T05:47:28.788Z,9.07
2023-03-21T05:49:55.603Z,8.18
2023-03-21T05:52:22.415Z,8.68
2023-03-21T05:54:49.170Z,9.50
2023-03-21T05:57:16.289Z,8.27
2023-03-21T05:59:42.918Z,8.95
2023-03-21T06:02:09.548Z,9.48
2023-03-21T06:04:36.179Z,8.57
2023-03-21T06:07:03.131Z,8.38
2023-03-21T06:09:29.791Z,8.32
2023-03-21T06:11:57.227Z,8.55
2023-03-21T06:14:25.096Z,8.05
2023-03-21T06:16:53.859Z,8.95
2023-03-21T06:19:21.700Z,8.30
2023-03-21T06:21:49.250Z,8.88
2023-03-21T06:24:17.742Z,8.40
2023-03-21T06:26:45.323Z,8.02
2023-03-21T06:29:12.427Z,8.55
2023-03-21T06:31:39.169Z,9.10
2023-03-21T06:34:06.556Z,8.15
2023-03-21T06:36:33.298Z,8.75
2023-03-21T06:38:59.966Z,8.20
2023-03-21T06:41:26.696Z,8.23
2023-03-21T06:43:53.437Z,8.13
2023-03-21T06:46:20.459Z,8.25
2023-03-21T06:48:47.124Z,8.35
2023-03-21T06:51:14.777Z,9.57
2023-03-21T06:53:41.787Z,8.65
2023-03-21T06:56:13.600Z,8.32
2023-03-21T06:58:40.873Z,8.50
2023-03-21T07:01:08.185Z,9.18
2023-03-21T07:03:35.504Z,8.18
2023-03-21T07:06:11.802Z,8.10
2023-03-21T07:08:39.993Z,8.00
2023-03-21T07:11:07.526Z,9.75
2023-03-21T07:13:34.171Z,8.90
2023-03-21T07:16:01.028Z,8.82
2023-03-21T07:18:27.707Z,8.65
2023-03-21T07:20:54.452Z,8.27
2023-03-21T07:23:23.032Z,8.93
2023-03-21T07:25:51.124Z,7.78
2023-03-21T07:28:18.605Z,8.63
2023-03-21T07:30:51.290Z,9.00
2023-03-21T07:33:17.892Z,7.90
2023-03-21T07:35:44.702Z,8.95
2023-03-21T07:38:11.538Z,8.80
2023-03-21T07:40:38.306Z,8.35
2023-03-21T07:43:05.229Z,8.55
2023-03-21T07:45:31.831Z,8.80
2023-03-21T07:47:58.488Z,9.50
2023-03-21T07:50:25.241Z,8.40
2023-03-21T07:52:51.900Z,8.30
2023-03-21T07:55:18.731Z,8.23
2023-03-21T07:57:45.472Z,9.20
2023-03-21T08:00:13.744Z,8.63
2023-03-21T08:02:40.769Z,9.50
2023-03-21T08:05:08.104Z,8.32
2023-03-21T08:07:35.094Z,8.25
2023-03-21T08:10:01.731Z,8.80
2023-03-21T08:12:28.412Z,8.32
2023-03-21T08:14:55.135Z,8.20
2023-03-21T08:17:21.840Z,7.90
2023-03-21T08:19:49.083Z,8.43
2023-03-21T08:22:15.984Z,8.25
2023-03-21T08:24:42.721Z,8.52
2023-03-21T08:27:09.352Z,7.63
2023-03-21T08:29:40.443Z,7.82
2023-03-21T08:32:07.243Z,8.68
2023-03-21T08:34:34.114Z,7.38
2023-03-21T08:37:01.195Z,7.80
2023-03-21T08:39:28.403Z,7.90
2023-03-21T08:41:55.059Z,7.43
2023-03-21T08:44:22.084Z,8.30
2023-03-21T08:46:48.695Z,7.38
2023-03-21T08:49:15.311Z,7.97
2023-03-21T08:51:45.652Z,8.13
2023-03-21T08:54:22.100Z,8.20
2023-03-21T08:56:49.174Z,8.70
2023-03-21T08:59:15.913Z,8.20
2023-03-21T09:01:42.646Z,7.35
2023-03-21T09:04:11.001Z,7.65
2023-03-21T09:06:38.678Z,8.23
2023-03-21T09:09:07.526Z,8.32
2023-03-21T09:11:34.859Z,7.38
2023-03-21T09:14:01.940Z,8.45
2023-03-21T09:16:28.607Z,7.72
2023-03-21T09:18:57.010Z,9.50
2023-03-21T09:21:24.591Z,7.60
2023-03-21T09:23:52.978Z,8.43
2023-03-21T09:26:20.401Z,9.18
2023-03-21T09:28:48.073Z,8.10
2023-03-21T09:31:16.383Z,8.75
2023-03-21T09:33:43.838Z,8.32
2023-03-21T09:36:15.339Z,7.35
2023-03-21T09:38:45.431Z,7.80
2023-03-21T09:41:44.991Z,7.47
2023-03-21T09:44:37.505Z,7.57
2023-03-21T09:47:13.956Z,8.15
2023-03-21T09:49:44.957Z,7.70
2023-03-21T09:52:40.704Z,7.93
2023-03-21T09:55:19.950Z,7.30
2023-03-21T09:57:50.530Z,7.82
2023-03-21T10:00:29.464Z,8.00
2023-03-21T10:03:01.652Z,8.13
2023-03-21T10:05:31.960Z,6.90
2023-03-21T10:08:13.248Z,7.43
2023-03-21T10:10:52.983Z,7.10
2023-03-21T10:13:33.282Z,7.20
2023-03-21T10:16:04.498Z,6.72
2023-03-21T10:18:31.659Z,6.50
2023-03-21T10:20:58.409Z,6.25
2023-03-21T10:23:29.554Z,7.20
2023-03-21T10:26:00.003Z,6.15
2023-03-21T10:28:46.235Z,6.95
2023-03-21T10:31:25.269Z,6.20
2023-03-21T10:33:54.067Z,6.30
2023-03-21T10:36:25.820Z,7.55
2023-03-21T10:39:03.555Z,6.88
2023-03-21T10:41:30.937Z,7.00
2023-03-21T10:44:28.736Z,6.78
2023-03-21T10:47:09.782Z,7.18
2023-03-21T10:49:56.475Z,6.60
2023-03-21T10:52:28.439Z,6.78
2023-03-21T10:55:32.710Z,6.25
2023-03-21T10:58:18.852Z,6.57
2023-03-21T11:00:47.714Z,6.75
2023-03-21T11:03:33.291Z,6.53
2023-03-21T11:06:08.054Z,6.90
2023-03-21T11:08:45.791Z,6.35
2023-03-21T11:11:29.281Z,7.55
2023-03-21T11:14:01.756Z,6.78
2023-03-21T11:16:42.996Z,6.43
2023-03-21T11:19:15.631Z,7.28
2023-03-21T11:21:43.199Z,6.35
2023-03-21T11:24:18.385Z,7.20
2023-03-21T11:26:49.534Z,6.90
2023-03-21T11:29:25.957Z,7.15
2023-03-21T11:31:53.335Z,8.00
2023-03-21T11:34:39.047Z,7.20
2023-03-21T11:37:06.829Z,7.20
2023-03-21T11:39:39.569Z,7.20
2023-03-21T11:42:25.856Z,7.32
2023-03-21T11:45:02.179Z,6.93
2023-03-21T11:47:28.997Z,8.18
2023-03-21T11:50:04.520Z,7.63
2023-03-21T11:52:58.071Z,7.70
2023-03-21T11:55:58.828Z,7.38
2023-03-21T11:59:04.098Z,6.22
2023-03-21T12:01:59.772Z,7.15
2023-03-21T12:04:27.196Z,7.05
2023-03-21T12:07:00.590Z,7.18
2023-03-21T12:09:57.586Z,7.05
2023-03-21T12:12:45.745Z,7.60
2023-03-21T12:15:37.129Z,7.20
2023-03-21T12:18:25.934Z,5.95
2023-03-21T12:20:52.554Z,6.18
2023-03-21T12:23:31.130Z,6.13
2023-03-21T12:25:57.982Z,6.43
2023-03-21T12:28:50.029Z,5.57
2023-03-21T12:31:31.040Z,5.43
2023-03-21T12:34:23.383Z,6.15
2023-03-21T12:37:21.413Z,6.07
2023-03-21T12:39:50.097Z,6.55
2023-03-21T12:42:43.350Z,6.40
2023-03-21T12:45:16.823Z,5.50
2023-03-21T12:47:48.825Z,6.90
2023-03-21T12:50:22.652Z,6.65
2023-03-21T12:52:55.269Z,6.22
2023-03-21T12:55:24.774Z,7.00
2023-03-21T12:58:04.273Z,7.15
2023-03-21T13:00:45.781Z,7.22
2023-03-21T13:03:30.627Z,6.80
2023-03-21T13:06:07.066Z,6.80
2023-03-21T13:08:44.103Z,7.90
2023-03-21T13:11:15.233Z,7.18
2023-03-21T13:13:41.838Z,8.10
2023-03-21T13:16:21.114Z,6.70
2023-03-21T13:19:17.010Z,6.82
2023-03-21T13:21:46.994Z,6.60
2023-03-21T13:24:28.097Z,7.13
2023-03-21T13:27:07.596Z,6.90
2023-03-21T13:29:50.650Z,7.40
2023-03-21T13:32:30.919Z,7.50
2023-03-21T13:35:27.455Z,7.05
2023-03-21T13:37:58.931Z,7.20
2023-03-21T13:40:34.725Z,6.43
2023-03-21T13:43:03.648Z,7.28
2023-03-21T13:45:34.585Z,7.65
2023-03-21T13:48:07.359Z,7.00
2023-03-21T13:50:49.616Z,7.65
2023-03-21T13:53:16.203Z,6.47
2023-03-21T13:55:45.817Z,7.70
2023-03-21T13:58:33.405Z,7.43
2023-03-21T14:01:36.386Z,7.65
2023-03-21T14:04:16.621Z,6.65
2023-03-21T14:06:43.279Z,7.05
2023-03-21T14:09:16.024Z,7.70
2023-03-21T14:11:46.689Z,8.50
2023-03-21T14:14:14.005Z,8.13
2023-03-21T14:16:42.124Z,7.30
2023-03-21T14:19:11.920Z,8.07
2023-03-21T14:21:46.168Z,8.45
2023-03-21T14:24:13.948Z,8.07
2023-03-21T14:26:44.350Z,8.07
2023-03-21T14:29:26.122Z,8.15
2023-03-21T14:31:55.568Z,8.30
2023-03-21T14:34:23.037Z,8.63
2023-03-21T14:36:57.497Z,8.50
2023-03-21T14:39:32.018Z,9.10
2023-03-21T14:42:05.757Z,9.60
2023-03-21T14:44:54.821Z,10.43
2023-03-21T14:47:32.180Z,9.00
2023-03-21T14:50:01.126Z,9.57
2023-03-21T14:52:31.882Z,9.02
2023-03-21T14:55:00.788Z,9.00
2023-03-21T14:57:30.921Z,9.05
2023-03-21T15:00:01.822Z,10.05
2023-03-21T15:02:34.461Z,8.80
2023-03-21T15:05:30.440Z,8.85
2023-03-21T15:07:58.714Z,9.25
2023-03-21T15:10:27.946Z,8.80
2023-03-21T15:12:57.436Z,9.93
2023-03-21T15:15:27.587Z,9.82
2023-03-21T15:17:57.430Z,9.45
2023-03-21T15:20:28.671Z,9.35
2023-03-21T15:23:00.595Z,8.88
2023-03-21T15:25:30.796Z,8.85
2023-03-21T15:27:57.444Z,9.20
2023-03-21T15:30:30.592Z,9.13
2023-03-21T15:32:59.206Z,8.75
2023-03-21T15:35:36.031Z,9.43
2023-03-21T15:38:04.570Z,10.35
2023-03-21T15:40:33.682Z,10.00
2023-03-21T15:43:19.829Z,9.20
2023-03-21T15:45:49.184Z,10.00
2023-03-21T15:48:16.217Z,10.30
2023-03-21T15:51:03.460Z,11.20
2023-03-21T15:53:34.139Z,9.30
2023-03-21T15:56:02.026Z,10.70
2023-03-21T15:58:42.686Z,11.10
2023-03-21T16:01:18.554Z,9.68
2023-03-21T16:03:47.939Z,9.38
2023-03-21T16:06:25.650Z,9.45
2023-03-21T16:09:03.804Z,10.52
2023-03-21T16:11:48.049Z,10.43
2023-03-21T16:14:14.729Z,9.32
2023-03-21T16:16:41.431Z,9.48
2023-03-21T16:19:08.161Z,9.82
2023-03-21T16:21:38.093Z,9.57
2023-03-21T16:24:06.297Z,10.23
2023-03-21T16:26:36.962Z,10.20
2023-03-21T16:29:05.382Z,10.15
2023-03-21T16:31:34.017Z,9.93
2023-03-21T16:34:01.707Z,10.07
2023-03-21T16:36:37.132Z,9.35
2023-03-21T16:39:24.325Z,9.88
2023-03-21T16:41:51.440Z,10.20
2023-03-21T16:44:19.019Z,10.38
2023-03-21T16:46:47.167Z,10.05
2023-03-21T16:49:26.102Z,11.00
2023-03-21T16:51:54.510Z,10.15
2023-03-21T16:54:21.309Z,10.10
2023-03-21T16:56:52.187Z,11.13
2023-03-21T16:59:19.021Z,11.05
2023-03-21T17:01:47.673Z,9.73
2023-03-21T17:04:16.396Z,9.40
2023-03-21T17:06:46.268Z,10.68
2023-03-21T17:09:15.413Z,11.45
2023-03-21T17:11:42.544Z,11.02
2023-03-21T17:14:12.088Z,10.85
2023-03-21T17:16:43.311Z,9.75
2023-03-21T17:19:13.518Z,11.30
2023-03-21T17:21:40.268Z,11.30
2023-03-21T17:24:07.008Z,11.85
2023-03-21T17:26:33.783Z,11.43
2023-03-21T17:29:00.888Z,10.95
2023-03-21T17:31:31.698Z,12.48
2023-03-21T17:33:58.421Z,11.57
2023-03-21T17:36:31.080Z,12.43
2023-03-21T17:38:58.084Z,11.45
2023-03-21T17:41:24.932Z,11.57
2023-03-21T17:43:51.751Z,10.35
2023-03-21T17:46:24.078Z,11.15
2023-03-21T17:48:51.311Z,11.35
2023-03-21T17:51:18.198Z,11.43
2023-03-21T17:53:50.625Z,10.70
2023-03-21T17:56:32.148Z,11.55
2023-03-21T17:59:00.968Z,12.07
2023-03-21T18:01:30.600Z,10.68
2023-03-21T18:03:58.084Z,11.20
2023-03-21T18:06:26.744Z,10.75
2023-03-21T18:08:54.617Z,10.80
2023-03-21T18:11:22.642Z,10.93
2023-03-21T18:13:49.304Z,11.48
2023-03-21T18:16:22.229Z,10.55
2023-03-21T18:18:50.821Z,11.18
2023-03-21T18:21:20.212Z,10.95
2023-03-21T18:23:47.643Z,10.73
2023-03-21T18:26:19.806Z,10.80
2023-03-21T18:29:16.692Z,11.55
2023-03-21T18:31:34.406Z,11.88
2023-03-21T18:34:01.274Z,12.00
2023-03-21T18:36:29.062Z,12.63
2023-03-21T18:38:56.868Z,12.52
2023-03-21T18:41:23.805Z,14.35
2023-03-21T18:44:17.508Z,12.57
2023-03-21T18:46:40.320Z,11.30
2023-03-21T18:49:42.134Z,11.80
2023-03-21T18:51:54.308Z,12.25
2023-03-21T18:54:21.370Z,11.63
2023-03-21T18:57:33.919Z,12.82
2023-03-21T18:59:39.238Z,11.93
2023-03-21T19:02:06.677Z,13.07
2023-03-21T19:04:34.157Z,13.23
2023-03-21T19:07:01.043Z,12.25
2023-03-21T19:09:31.587Z,13.10
2023-03-21T19:11:58.950Z,11.85
2023-03-21T19:14:25.606Z,13.35
2023-03-21T19:19:40.576Z,12.35
2023-03-21T19:22:07.510Z,12.30
2023-03-21T19:24:34.227Z,12.38
2023-03-21T19:27:00.911Z,11.50
2023-03-21T19:29:27.570Z,12.85
2023-03-21T19:31:54.292Z,12.23
2023-03-21T19:34:21.162Z,12.38
2023-03-21T19:36:52.186Z,11.85
2023-03-21T19:39:22.227Z,12.32
2023-03-21T19:41:50.558Z,12.77
2023-03-21T19:44:17.932Z,12.25
2023-03-21T19:46:44.668Z,11.70
2023-03-21T19:49:11.334Z,13.05
2023-03-21T19:51:38.059Z,13.95
2023-03-21T19:54:05.939Z,12.75
2023-03-21T19:56:34.484Z,9.40
2023-03-21T19:59:03.128Z,9.45
2023-03-21T20:01:32.304Z,10.25
2023-03-21T20:03:59.337Z,10.00
2023-03-21T20:06:26.803Z,11.20
2023-03-21T20:09:34.022Z,11.82
2023-03-21T20:11:40.761Z,12.05
2023-03-21T20:14:07.413Z,14.88
2023-03-21T20:16:35.631Z,12.32
2023-03-21T20:19:05.682Z,13.45
2023-03-21T20:21:45.338Z,13.27
2023-03-21T20:24:16.761Z,13.88
2023-03-21T20:26:45.114Z,13.25
2023-03-21T20:30:05.453Z,15.10
2023-03-21T20:31:58.579Z,13.27
2023-03-21T20:34:25.258Z,12.07
2023-03-21T20:36:53.366Z,13.10
2023-03-21T20:39:20.274Z,12.05
2023-03-21T20:41:47.055Z,13.85
2023-03-21T20:44:48.088Z,12.93
2023-03-21T20:47:00.736Z,12.75
2023-03-21T20:49:28.434Z,12.07
2023-03-21T20:54:43.349Z,12.55
2023-03-21T20:57:10.106Z,13.00
2023-03-21T20:59:36.841Z,11.88
2023-03-21T21:02:03.627Z,11.40
2023-03-21T21:04:52.897Z,12.45
2023-03-21T21:07:20.253Z,12.80
2023-03-21T21:09:47.834Z,13.30
2023-03-21T21:12:16.500Z,13.80
2023-03-21T21:14:43.700Z,14.43
2023-03-21T21:17:28.398Z,15.48
2023-03-21T21:19:57.104Z,14.10
2023-03-21T21:22:23.924Z,13.48
2023-03-21T21:24:50.598Z,14.40
2023-03-21T21:27:17.207Z,14.85
2023-03-21T21:29:43.825Z,12.63
2023-03-21T21:32:11.276Z,13.43
2023-03-21T21:34:38.272Z,14.13
2023-03-21T21:37:05.133Z,14.02
2023-03-21T21:39:37.850Z,13.93
2023-03-21T21:42:05.099Z,13.25
2023-03-21T21:44:31.784Z,13.13
2023-03-21T21:46:58.494Z,12.73
2023-03-21T21:49:25.240Z,12.45
2023-03-21T21:51:51.885Z,12.55
2023-03-21T21:54:18.739Z,12.93
2023-03-21T21:56:48.294Z,12.65
2023-03-21T21:59:18.306Z,12.00
2023-03-21T22:01:46.624Z,12.85
2023-03-21T22:04:14.455Z,12.23
2023-03-21T22:06:42.242Z,12.65
2023-03-21T22:09:09.591Z,13.00
2023-03-21T22:11:36.377Z,12.23
2023-03-21T22:14:03.486Z,14.25
2023-03-21T22:16:30.185Z,12.48
2023-03-21T22:18:56.969Z,13.32
2023-03-21T22:21:23.688Z,13.52
2023-03-21T22:23:50.337Z,13.73
2023-03-21T22:26:17.103Z,12.80
2023-03-21T22:28:43.841Z,15.02
2023-03-21T22:31:15.749Z,12.48
2023-03-21T22:33:43.390Z,13.63
2023-03-21T22:36:11.153Z,11.82
2023-03-21T22:38:38.327Z,12.85
2023-03-21T22:41:06.495Z,12.55
2023-03-21T22:43:34.311Z,13.60
2023-03-21T22:46:05.022Z,12.48
2023-03-21T22:48:32.310Z,11.70
2023-03-21T22:50:59.877Z,12.30
2023-03-21T22:53:26.821Z,12.85
2023-03-21T22:55:53.750Z,12.27
2023-03-21T22:58:20.921Z,12.75
2023-03-21T23:00:47.769Z,11.82
2023-03-21T23:03:16.619Z,12.07
2023-03-21T23:05:44.418Z,11.80
2023-03-21T23:08:11.618Z,12.45
2023-03-21T23:10:39.780Z,11.65
2023-03-21T23:13:06.823Z,12.15
2023-03-21T23:15:33.847Z,12.43
2023-03-21T23:18:00.512Z,13.43
2023-03-21T23:20:27.244Z,12.63
2023-03-21T23:22:53.892Z,12.80
2023-03-21T23:25:20.684Z,14.38
2023-03-21T23:27:47.964Z,13.30
2023-03-21T23:30:14.720Z,12.20
2023-03-21T23:32:41.717Z,13.82
2023-03-21T23:35:09.453Z,12.75
2023-03-21T23:37:36.140Z,14.20
2023-03-21T23:40:06.107Z,14.10
2023-03-21T23:42:34.083Z,14.02
2023-03-21T23:45:00.848Z,14.43
2023-03-21T23:47:27.946Z,12.75
2023-03-21T23:49:54.604Z,14.55
2023-03-21T23:52:21.329Z,14.88
2023-03-21T23:54:48.065Z,14.25
2023-03-21T23:57:14.692Z,14.40
2023-03-21T23:59:41.381Z,14.93
